sensor_id;sensor_type;location;lat;lon;timestamp;temperature;humidity
2565;DHT22;1292;48.020;7.822;2022-10-22T05:47:05;14.20;99.90
2565;DHT22;1292;48.020;7.822;2022-10-22T05:49:32;14.20;99.90
2565;DHT22;1292;48.020;7.822;2022-10-22T05:51:58;14.10;99.90
2565;DHT22;1292;48.020;7.822;2022-10-22T05:54:25;14.10;99.90
2565;DHT22;1292;48.020;7.822;2022-10-22T05:56:52;14.20;99.90
2565;DHT22;1292;48.020;7.822;2022-10-22T05:59:20;14.20;99.90
2565;DHT22;1292;48.020;7.822;2022-10-22T06:01:46;14.20;99.90
2565;DHT22;1292;48.020;7.822;2022-10-22T06:04:15;14.20;99.90
2565;DHT22;1292;48.020;7.822;2022-10-22T06:06:44;14.20;99.90
2565;DHT22;1292;48.020;7.822;2022-10-22T06:09:14;14.20;99.90
2565;DHT22;1292;48.020;7.822;2022-10-22T06:11:43;14.20;99.90
2565;DHT22;1292;48.020;7.822;2022-10-22T06:14:10;14.20;99.90
2565;DHT22;1292;48.020;7.822;2022-10-22T06:16:37;14.20;99.90
2565;DHT22;1292;48.020;7.822;2022-10-22T06:19:04;14.20;99.90
2565;DHT22;1292;48.020;7.822;2022-10-22T06:21:32;14.20;99.90
2565;DHT22;1292;48.020;7.822;2022-10-22T06:24:00;14.20;99.90
2565;DHT22;1292;48.020;7.822;2022-10-22T06:26:27;14.20;99.90
2565;DHT22;1292;48.020;7.822;2022-10-22T06:28:54;14.20;99.90
2565;DHT22;1292;48.020;7.822;2022-10-22T06:31:21;14.20;99.90
2565;DHT22;1292;48.020;7.822;2022-10-22T06:33:48;14.10;99.90
2565;DHT22;1292;48.020;7.822;2022-10-22T06:36:16;14.10;99.90
2565;DHT22;1292;48.020;7.822;2022-10-22T06:38:45;14.10;99.90
2565;DHT22;1292;48.020;7.822;2022-10-22T06:41:14;14.10;99.90
2565;DHT22;1292;48.020;7.822;2022-10-22T06:43:43;14.00;99.90
2565;DHT22;1292;48.020;7.822;2022-10-22T06:46:12;14.00;99.90
2565;DHT22;1292;48.020;7.822;2022-10-22T06:48:40;14.10;99.90
2565;DHT22;1292;48.020;7.822;2022-10-22T06:51:09;14.10;99.90
2565;DHT22;1292;48.020;7.822;2022-10-22T06:53:37;14.10;99.90
2565;DHT22;1292;48.020;7.822;2022-10-22T06:56:06;14.10;99.90
2565;DHT22;1292;48.020;7.822;2022-10-22T06:58:33;14.10;99.90
2565;DHT22;1292;48.020;7.822;2022-10-22T07:01:01;14.00;99.90
2565;DHT22;1292;48.020;7.822;2022-10-22T07:03:28;14.00;99.90
2565;DHT22;1292;48.020;7.822;2022-10-22T07:05:58;14.00;99.90
2565;DHT22;1292;48.020;7.822;2022-10-22T07:08:25;14.00;99.90
2565;DHT22;1292;48.020;7.822;2022-10-22T07:10:52;14.00;99.90
2565;DHT22;1292;48.020;7.822;2022-10-22T07:13:20;14.10;99.90
2565;DHT22;1292;48.020;7.822;2022-10-22T07:15:51;14.10;99.90
2565;DHT22;1292;48.020;7.822;2022-10-22T07:18:18;14.10;99.90
2565;DHT22;1292;48.020;7.822;2022-10-22T07:20:46;14.10;99.90
2565;DHT22;1292;48.020;7.822;2022-10-22T07:23:13;14.10;99.90
2565;DHT22;1292;48.020;7.822;2022-10-22T07:25:40;14.10;99.90
2565;DHT22;1292;48.020;7.822;2022-10-22T07:28:07;14.20;99.90
2565;DHT22;1292;48.020;7.822;2022-10-22T07:30:36;14.30;99.90
2565;DHT22;1292;48.020;7.822;2022-10-22T07:33:03;14.40;99.90
2565;DHT22;1292;48.020;7.822;2022-10-22T07:35:30;14.40;99.90
2565;DHT22;1292;48.020;7.822;2022-10-22T07:37:57;14.40;99.90
2565;DHT22;1292;48.020;7.822;2022-10-22T07:40:24;14.40;99.90
2565;DHT22;1292;48.020;7.822;2022-10-22T07:42:50;14.50;99.90
2565;DHT22;1292;48.020;7.822;2022-10-22T07:45:18;14.50;99.90
2565;DHT22;1292;48.020;7.822;2022-10-22T07:47:47;14.60;99.90
2565;DHT22;1292;48.020;7.822;2022-10-22T07:50:15;14.60;99.90
2565;DHT22;1292;48.020;7.822;2022-10-22T07:52:42;14.50;99.90
2565;DHT22;1292;48.020;7.822;2022-10-22T07:55:09;14.60;99.90
2565;DHT22;1292;48.020;7.822;2022-10-22T07:57:37;14.60;99.90
2565;DHT22;1292;48.020;7.822;2022-10-22T08:00:05;14.60;99.90
2565;DHT22;1292;48.020;7.822;2022-10-22T08:02:32;14.60;99.90
2565;DHT22;1292;48.020;7.822;2022-10-22T08:05:00;14.70;99.90
2565;DHT22;1292;48.020;7.822;2022-10-22T08:07:27;14.70;99.90
2565;DHT22;1292;48.020;7.822;2022-10-22T08:09:54;14.80;99.90
2565;DHT22;1292;48.020;7.822;2022-10-22T08:12:21;14.90;99.90
2565;DHT22;1292;48.020;7.822;2022-10-22T08:14:48;14.90;99.90
2565;DHT22;1292;48.020;7.822;2022-10-22T08:17:15;14.90;99.90
2565;DHT22;1292;48.020;7.822;2022-10-22T08:19:42;15.00;99.90
2565;DHT22;1292;48.020;7.822;2022-10-22T08:22:10;15.10;99.90
2565;DHT22;1292;48.020;7.822;2022-10-22T08:24:37;15.10;99.90
2565;DHT22;1292;48.020;7.822;2022-10-22T08:27:07;15.20;99.90
2565;DHT22;1292;48.020;7.822;2022-10-22T08:29:33;15.20;99.90
2565;DHT22;1292;48.020;7.822;2022-10-22T08:32:00;15.30;99.90
2565;DHT22;1292;48.020;7.822;2022-10-22T08:34:28;15.40;99.90
2565;DHT22;1292;48.020;7.822;2022-10-22T08:36:55;15.50;99.90
2565;DHT22;1292;48.020;7.822;2022-10-22T08:39:23;15.50;99.90
2565;DHT22;1292;48.020;7.822;2022-10-22T08:41:59;15.60;99.90
2565;DHT22;1292;48.020;7.822;2022-10-22T08:44:59;15.70;99.90
2565;DHT22;1292;48.020;7.822;2022-10-22T08:47:47;15.80;99.90
2565;DHT22;1292;48.020;7.822;2022-10-22T08:50:22;15.90;99.90
2565;DHT22;1292;48.020;7.822;2022-10-22T08:52:54;16.00;99.90
2565;DHT22;1292;48.020;7.822;2022-10-22T08:55:24;16.10;99.90
2565;DHT22;1292;48.020;7.822;2022-10-22T08:57:55;16.20;99.90
2565;DHT22;1292;48.020;7.822;2022-10-22T09:00:31;16.20;99.90
2565;DHT22;1292;48.020;7.822;2022-10-22T09:03:09;16.30;99.90
2565;DHT22;1292;48.020;7.822;2022-10-22T09:05:47;16.40;99.90
2565;DHT22;1292;48.020;7.822;2022-10-22T09:08:19;16.50;99.90
2565;DHT22;1292;48.020;7.822;2022-10-22T09:10:50;16.60;99.90
2565;DHT22;1292;48.020;7.822;2022-10-22T09:13:20;16.60;99.90
2565;DHT22;1292;48.020;7.822;2022-10-22T09:15:51;16.70;99.90
2565;DHT22;1292;48.020;7.822;2022-10-22T09:18:28;16.80;99.90
2565;DHT22;1292;48.020;7.822;2022-10-22T09:21:02;16.90;99.90
2565;DHT22;1292;48.020;7.822;2022-10-22T09:23:37;16.90;99.90
2565;DHT22;1292;48.020;7.822;2022-10-22T09:26:12;17.10;99.90
2565;DHT22;1292;48.020;7.822;2022-10-22T09:28:39;17.20;99.90
2565;DHT22;1292;48.020;7.822;2022-10-22T09:31:09;17.30;99.90
2565;DHT22;1292;48.020;7.822;2022-10-22T09:33:37;17.30;99.90
2565;DHT22;1292;48.020;7.822;2022-10-22T09:36:04;17.40;99.90
2565;DHT22;1292;48.020;7.822;2022-10-22T09:38:35;17.50;99.90
2565;DHT22;1292;48.020;7.822;2022-10-22T09:41:04;17.60;99.90
2565;DHT22;1292;48.020;7.822;2022-10-22T09:43:33;17.60;99.90
2565;DHT22;1292;48.020;7.822;2022-10-22T09:46:02;17.70;99.90
2565;DHT22;1292;48.020;7.822;2022-10-22T09:48:33;17.80;99.90
2565;DHT22;1292;48.020;7.822;2022-10-22T09:51:07;17.90;99.90
2565;DHT22;1292;48.020;7.822;2022-10-22T09:53:40;18.00;99.90
2565;DHT22;1292;48.020;7.822;2022-10-22T09:56:09;18.00;99.90
2565;DHT22;1292;48.020;7.822;2022-10-22T09:58:53;18.10;99.90
2565;DHT22;1292;48.020;7.822;2022-10-22T10:01:27;18.20;99.90
2565;DHT22;1292;48.020;7.822;2022-10-22T10:04:01;18.20;99.90
2565;DHT22;1292;48.020;7.822;2022-10-22T10:06:31;18.20;99.90
2565;DHT22;1292;48.020;7.822;2022-10-22T10:08:59;18.30;99.90
2565;DHT22;1292;48.020;7.822;2022-10-22T10:11:31;18.30;99.90
2565;DHT22;1292;48.020;7.822;2022-10-22T10:14:08;18.40;99.90
2565;DHT22;1292;48.020;7.822;2022-10-22T10:16:44;18.40;99.90
2565;DHT22;1292;48.020;7.822;2022-10-22T10:19:35;18.40;99.90
2565;DHT22;1292;48.020;7.822;2022-10-22T10:22:14;18.50;99.90
2565;DHT22;1292;48.020;7.822;2022-10-22T10:24:56;18.50;99.90
2565;DHT22;1292;48.020;7.822;2022-10-22T10:27:27;18.60;99.90
2565;DHT22;1292;48.020;7.822;2022-10-22T10:30:03;18.70;99.90
2565;DHT22;1292;48.020;7.822;2022-10-22T10:32:48;18.70;99.90
2565;DHT22;1292;48.020;7.822;2022-10-22T10:35:23;18.70;99.90
2565;DHT22;1292;48.020;7.822;2022-10-22T10:38:05;18.80;99.90
2565;DHT22;1292;48.020;7.822;2022-10-22T10:40:39;18.80;99.90
2565;DHT22;1292;48.020;7.822;2022-10-22T10:43:12;18.90;99.90
2565;DHT22;1292;48.020;7.822;2022-10-22T10:45:51;19.00;99.90
2565;DHT22;1292;48.020;7.822;2022-10-22T10:48:35;19.00;99.90
2565;DHT22;1292;48.020;7.822;2022-10-22T10:51:12;19.10;99.90
2565;DHT22;1292;48.020;7.822;2022-10-22T10:53:59;19.10;99.90
2565;DHT22;1292;48.020;7.822;2022-10-22T10:56:36;19.10;99.90
2565;DHT22;1292;48.020;7.822;2022-10-22T10:59:13;19.20;99.90
2565;DHT22;1292;48.020;7.822;2022-10-22T11:01:53;19.20;99.90
2565;DHT22;1292;48.020;7.822;2022-10-22T11:04:40;19.30;99.90
2565;DHT22;1292;48.020;7.822;2022-10-22T11:07:13;19.30;99.90
2565;DHT22;1292;48.020;7.822;2022-10-22T11:09:44;19.30;99.90
2565;DHT22;1292;48.020;7.822;2022-10-22T11:12:16;19.30;99.90
2565;DHT22;1292;48.020;7.822;2022-10-22T11:14:54;19.30;99.90
2565;DHT22;1292;48.020;7.822;2022-10-22T11:17:28;19.30;99.90
2565;DHT22;1292;48.020;7.822;2022-10-22T11:20:01;19.40;99.90
2565;DHT22;1292;48.020;7.822;2022-10-22T11:22:32;19.40;99.90
2565;DHT22;1292;48.020;7.822;2022-10-22T11:25:03;19.40;99.90
2565;DHT22;1292;48.020;7.822;2022-10-22T11:27:41;19.50;99.90
2565;DHT22;1292;48.020;7.822;2022-10-22T11:30:12;19.50;99.90
2565;DHT22;1292;48.020;7.822;2022-10-22T11:32:42;19.60;99.90
2565;DHT22;1292;48.020;7.822;2022-10-22T11:35:14;19.60;99.90
2565;DHT22;1292;48.020;7.822;2022-10-22T11:37:43;19.70;99.90
2565;DHT22;1292;48.020;7.822;2022-10-22T11:40:15;19.70;99.90
2565;DHT22;1292;48.020;7.822;2022-10-22T11:42:45;19.80;99.90
2565;DHT22;1292;48.020;7.822;2022-10-22T11:45:28;19.80;99.90
2565;DHT22;1292;48.020;7.822;2022-10-22T11:48:05;19.90;99.90
2565;DHT22;1292;48.020;7.822;2022-10-22T11:50:50;19.90;99.90
2565;DHT22;1292;48.020;7.822;2022-10-22T11:53:25;19.90;99.90
2565;DHT22;1292;48.020;7.822;2022-10-22T11:55:56;19.90;99.90
2565;DHT22;1292;48.020;7.822;2022-10-22T11:58:33;20.00;99.90
2565;DHT22;1292;48.020;7.822;2022-10-22T12:01:26;20.00;99.90
2565;DHT22;1292;48.020;7.822;2022-10-22T12:04:17;20.10;99.90
2565;DHT22;1292;48.020;7.822;2022-10-22T12:06:52;20.20;99.90
2565;DHT22;1292;48.020;7.822;2022-10-22T12:09:22;20.20;99.90
2565;DHT22;1292;48.020;7.822;2022-10-22T12:11:51;20.30;99.90
2565;DHT22;1292;48.020;7.822;2022-10-22T12:14:22;20.40;99.90
2565;DHT22;1292;48.020;7.822;2022-10-22T12:16:52;20.50;99.90
2565;DHT22;1292;48.020;7.822;2022-10-22T12:19:27;20.40;99.90
2565;DHT22;1292;48.020;7.822;2022-10-22T12:21:58;20.40;99.90
2565;DHT22;1292;48.020;7.822;2022-10-22T12:24:29;20.50;99.90
2565;DHT22;1292;48.020;7.822;2022-10-22T12:26:57;20.50;99.90
2565;DHT22;1292;48.020;7.822;2022-10-22T12:29:24;20.50;99.90
2565;DHT22;1292;48.020;7.822;2022-10-22T12:31:51;20.50;99.90
2565;DHT22;1292;48.020;7.822;2022-10-22T12:34:23;20.50;99.90
2565;DHT22;1292;48.020;7.822;2022-10-22T12:36:52;20.50;99.90
2565;DHT22;1292;48.020;7.822;2022-10-22T12:39:21;20.50;99.90
2565;DHT22;1292;48.020;7.822;2022-10-22T12:41:48;20.50;99.90
2565;DHT22;1292;48.020;7.822;2022-10-22T12:44:16;20.60;99.90
2565;DHT22;1292;48.020;7.822;2022-10-22T12:46:45;20.60;99.90
2565;DHT22;1292;48.020;7.822;2022-10-22T12:49:15;20.60;99.90
2565;DHT22;1292;48.020;7.822;2022-10-22T12:51:44;20.70;99.90
2565;DHT22;1292;48.020;7.822;2022-10-22T12:54:23;20.70;99.90
2565;DHT22;1292;48.020;7.822;2022-10-22T12:56:51;20.70;99.90
2565;DHT22;1292;48.020;7.822;2022-10-22T12:59:21;20.60;99.90
2565;DHT22;1292;48.020;7.822;2022-10-22T13:01:50;20.60;99.90
2565;DHT22;1292;48.020;7.822;2022-10-22T13:04:30;20.60;99.90
2565;DHT22;1292;48.020;7.822;2022-10-22T13:07:20;20.70;99.90
2565;DHT22;1292;48.020;7.822;2022-10-22T13:09:55;20.80;99.90
2565;DHT22;1292;48.020;7.822;2022-10-22T13:12:24;20.80;99.90
2565;DHT22;1292;48.020;7.822;2022-10-22T13:14:51;20.70;99.90
2565;DHT22;1292;48.020;7.822;2022-10-22T13:17:19;20.70;99.90
2565;DHT22;1292;48.020;7.822;2022-10-22T13:19:59;20.80;99.90
2565;DHT22;1292;48.020;7.822;2022-10-22T13:22:32;20.90;99.90
2565;DHT22;1292;48.020;7.822;2022-10-22T13:25:17;21.00;99.90
2565;DHT22;1292;48.020;7.822;2022-10-22T13:27:46;21.00;99.90
2565;DHT22;1292;48.020;7.822;2022-10-22T13:30:19;21.00;99.90
2565;DHT22;1292;48.020;7.822;2022-10-22T13:32:49;21.00;99.90
2565;DHT22;1292;48.020;7.822;2022-10-22T13:35:19;20.90;99.90
2565;DHT22;1292;48.020;7.822;2022-10-22T13:37:48;21.00;99.90
2565;DHT22;1292;48.020;7.822;2022-10-22T13:40:15;21.00;99.90
2565;DHT22;1292;48.020;7.822;2022-10-22T13:42:43;20.90;99.90
2565;DHT22;1292;48.020;7.822;2022-10-22T13:45:11;20.90;99.90
2565;DHT22;1292;48.020;7.822;2022-10-22T13:47:38;20.90;99.90
2565;DHT22;1292;48.020;7.822;2022-10-22T13:50:11;20.80;99.90
2565;DHT22;1292;48.020;7.822;2022-10-22T13:52:41;20.80;99.90
2565;DHT22;1292;48.020;7.822;2022-10-22T13:55:15;20.90;99.90
2565;DHT22;1292;48.020;7.822;2022-10-22T13:57:42;20.80;99.90
2565;DHT22;1292;48.020;7.822;2022-10-22T14:00:15;20.80;99.90
2565;DHT22;1292;48.020;7.822;2022-10-22T14:02:42;20.80;99.90
2565;DHT22;1292;48.020;7.822;2022-10-22T14:05:10;20.80;99.90
2565;DHT22;1292;48.020;7.822;2022-10-22T14:07:38;20.80;99.90
2565;DHT22;1292;48.020;7.822;2022-10-22T14:10:15;20.80;99.90
2565;DHT22;1292;48.020;7.822;2022-10-22T14:12:42;20.90;99.90
2565;DHT22;1292;48.020;7.822;2022-10-22T14:15:11;20.90;99.90
2565;DHT22;1292;48.020;7.822;2022-10-22T14:17:38;20.90;99.90
2565;DHT22;1292;48.020;7.822;2022-10-22T14:20:13;20.80;99.90
2565;DHT22;1292;48.020;7.822;2022-10-22T14:22:40;20.80;99.90
2565;DHT22;1292;48.020;7.822;2022-10-22T14:25:09;20.70;99.90
2565;DHT22;1292;48.020;7.822;2022-10-22T14:27:39;20.70;99.90
2565;DHT22;1292;48.020;7.822;2022-10-22T14:30:07;20.70;99.90
2565;DHT22;1292;48.020;7.822;2022-10-22T14:32:34;20.80;99.90
2565;DHT22;1292;48.020;7.822;2022-10-22T14:35:01;20.80;99.90
2565;DHT22;1292;48.020;7.822;2022-10-22T14:37:28;20.80;99.90
2565;DHT22;1292;48.020;7.822;2022-10-22T14:39:55;20.80;99.90
2565;DHT22;1292;48.020;7.822;2022-10-22T14:42:26;20.90;99.90
2565;DHT22;1292;48.020;7.822;2022-10-22T14:44:55;20.80;99.90
2565;DHT22;1292;48.020;7.822;2022-10-22T14:47:22;20.90;99.90
2565;DHT22;1292;48.020;7.822;2022-10-22T14:49:49;20.90;99.90
2565;DHT22;1292;48.020;7.822;2022-10-22T14:52:15;20.80;99.90
2565;DHT22;1292;48.020;7.822;2022-10-22T14:54:43;20.80;99.90
2565;DHT22;1292;48.020;7.822;2022-10-22T14:57:09;20.80;99.90
2565;DHT22;1292;48.020;7.822;2022-10-22T14:59:39;20.70;99.90
2565;DHT22;1292;48.020;7.822;2022-10-22T15:02:09;20.80;99.90
2565;DHT22;1292;48.020;7.822;2022-10-22T15:04:37;20.70;99.90
2565;DHT22;1292;48.020;7.822;2022-10-22T15:07:04;20.70;99.90
2565;DHT22;1292;48.020;7.822;2022-10-22T15:09:31;20.70;99.90
2565;DHT22;1292;48.020;7.822;2022-10-22T15:11:58;20.70;99.90
2565;DHT22;1292;48.020;7.822;2022-10-22T15:14:25;20.70;99.90
2565;DHT22;1292;48.020;7.822;2022-10-22T15:16:52;20.70;99.90
2565;DHT22;1292;48.020;7.822;2022-10-22T15:19:20;20.70;99.90
2565;DHT22;1292;48.020;7.822;2022-10-22T15:21:47;20.70;99.90
2565;DHT22;1292;48.020;7.822;2022-10-22T15:24:13;20.70;99.90
2565;DHT22;1292;48.020;7.822;2022-10-22T15:26:40;20.60;99.90
2565;DHT22;1292;48.020;7.822;2022-10-22T15:29:07;20.60;99.90
2565;DHT22;1292;48.020;7.822;2022-10-22T15:31:46;20.60;99.90
2565;DHT22;1292;48.020;7.822;2022-10-22T15:34:17;20.60;99.90
2565;DHT22;1292;48.020;7.822;2022-10-22T15:36:46;20.60;99.90
2565;DHT22;1292;48.020;7.822;2022-10-22T15:39:13;20.60;99.90
2565;DHT22;1292;48.020;7.822;2022-10-22T15:41:40;20.50;99.90
2565;DHT22;1292;48.020;7.822;2022-10-22T15:44:07;20.50;99.90
2565;DHT22;1292;48.020;7.822;2022-10-22T15:46:34;20.40;99.90
2565;DHT22;1292;48.020;7.822;2022-10-22T15:49:01;20.30;99.90
2565;DHT22;1292;48.020;7.822;2022-10-22T15:51:28;20.30;99.90
2565;DHT22;1292;48.020;7.822;2022-10-22T15:53:57;20.30;99.90
2565;DHT22;1292;48.020;7.822;2022-10-22T15:56:25;20.20;99.90
2565;DHT22;1292;48.020;7.822;2022-10-22T15:58:53;20.10;99.90
2565;DHT22;1292;48.020;7.822;2022-10-22T16:01:21;20.00;99.90
2565;DHT22;1292;48.020;7.822;2022-10-22T16:03:49;19.90;99.90
2565;DHT22;1292;48.020;7.822;2022-10-22T16:06:26;19.90;99.90
2565;DHT22;1292;48.020;7.822;2022-10-22T16:08:53;19.70;99.90
2565;DHT22;1292;48.020;7.822;2022-10-22T16:11:21;19.60;99.90
2565;DHT22;1292;48.020;7.822;2022-10-22T16:13:52;19.50;99.90
2565;DHT22;1292;48.020;7.822;2022-10-22T16:16:19;19.50;99.90
2565;DHT22;1292;48.020;7.822;2022-10-22T16:18:46;19.40;99.90
2565;DHT22;1292;48.020;7.822;2022-10-22T16:21:14;19.30;99.90
2565;DHT22;1292;48.020;7.822;2022-10-22T16:23:41;19.20;99.90
2565;DHT22;1292;48.020;7.822;2022-10-22T16:26:08;19.10;99.90
2565;DHT22;1292;48.020;7.822;2022-10-22T16:28:37;19.00;99.90
2565;DHT22;1292;48.020;7.822;2022-10-22T16:31:05;19.00;99.90
2565;DHT22;1292;48.020;7.822;2022-10-22T16:33:33;18.80;99.90
2565;DHT22;1292;48.020;7.822;2022-10-22T16:36:01;18.80;99.90
2565;DHT22;1292;48.020;7.822;2022-10-22T16:38:28;18.70;99.90
2565;DHT22;1292;48.020;7.822;2022-10-22T16:41:05;18.60;99.90
2565;DHT22;1292;48.020;7.822;2022-10-22T16:43:32;18.50;99.90
2565;DHT22;1292;48.020;7.822;2022-10-22T16:46:01;18.40;99.90
2565;DHT22;1292;48.020;7.822;2022-10-22T16:48:28;18.30;99.90
2565;DHT22;1292;48.020;7.822;2022-10-22T16:50:56;18.20;99.90
2565;DHT22;1292;48.020;7.822;2022-10-22T16:53:23;18.10;99.90
2565;DHT22;1292;48.020;7.822;2022-10-22T16:55:50;18.00;99.90
2565;DHT22;1292;48.020;7.822;2022-10-22T16:58:17;18.00;99.90
2565;DHT22;1292;48.020;7.822;2022-10-22T17:00:43;17.90;99.90
2565;DHT22;1292;48.020;7.822;2022-10-22T17:03:12;17.80;99.90
2565;DHT22;1292;48.020;7.822;2022-10-22T17:05:39;17.80;99.90
2565;DHT22;1292;48.020;7.822;2022-10-22T17:08:05;17.70;99.90
2565;DHT22;1292;48.020;7.822;2022-10-22T17:10:34;17.70;99.90
2565;DHT22;1292;48.020;7.822;2022-10-22T17:13:02;17.60;99.90
2565;DHT22;1292;48.020;7.822;2022-10-22T17:15:29;17.60;99.90
2565;DHT22;1292;48.020;7.822;2022-10-22T17:17:58;17.60;99.90
2565;DHT22;1292;48.020;7.822;2022-10-22T17:20:26;17.50;99.90
2565;DHT22;1292;48.020;7.822;2022-10-22T17:22:54;17.50;99.90
2565;DHT22;1292;48.020;7.822;2022-10-22T17:25:23;17.40;99.90
2565;DHT22;1292;48.020;7.822;2022-10-22T17:27:50;17.40;99.90
2565;DHT22;1292;48.020;7.822;2022-10-22T17:30:19;17.40;99.90
2565;DHT22;1292;48.020;7.822;2022-10-22T17:32:47;17.30;99.90
2565;DHT22;1292;48.020;7.822;2022-10-22T17:35:14;17.30;99.90
2565;DHT22;1292;48.020;7.822;2022-10-22T17:37:43;17.30;99.90
2565;DHT22;1292;48.020;7.822;2022-10-22T17:40:10;17.20;99.90
2565;DHT22;1292;48.020;7.822;2022-10-22T17:42:39;17.20;99.90
2565;DHT22;1292;48.020;7.822;2022-10-22T17:45:06;17.10;99.90
2565;DHT22;1292;48.020;7.822;2022-10-22T17:47:34;17.10;99.90
2565;DHT22;1292;48.020;7.822;2022-10-22T17:50:01;17.10;99.90
2565;DHT22;1292;48.020;7.822;2022-10-22T17:52:28;17.10;99.90
2565;DHT22;1292;48.020;7.822;2022-10-22T17:54:56;17.00;99.90
2565;DHT22;1292;48.020;7.822;2022-10-22T17:57:23;17.00;99.90
2565;DHT22;1292;48.020;7.822;2022-10-22T17:59:50;17.00;99.90
2565;DHT22;1292;48.020;7.822;2022-10-22T18:02:17;16.90;99.90
2565;DHT22;1292;48.020;7.822;2022-10-22T18:04:44;16.80;99.90
2565;DHT22;1292;48.020;7.822;2022-10-22T18:07:11;16.80;99.90
2565;DHT22;1292;48.020;7.822;2022-10-22T18:09:39;16.80;99.90
2565;DHT22;1292;48.020;7.822;2022-10-22T18:12:08;16.70;99.90
2565;DHT22;1292;48.020;7.822;2022-10-22T18:14:38;16.70;99.90
2565;DHT22;1292;48.020;7.822;2022-10-22T18:17:05;16.70;99.90
2565;DHT22;1292;48.020;7.822;2022-10-22T18:19:32;16.60;99.90
2565;DHT22;1292;48.020;7.822;2022-10-22T18:21:59;16.60;99.90
2565;DHT22;1292;48.020;7.822;2022-10-22T18:24:26;16.50;99.90
2565;DHT22;1292;48.020;7.822;2022-10-22T18:26:53;16.50;99.90
2565;DHT22;1292;48.020;7.822;2022-10-22T18:29:21;16.50;99.90
2565;DHT22;1292;48.020;7.822;2022-10-22T18:31:48;16.50;99.90
2565;DHT22;1292;48.020;7.822;2022-10-22T18:34:15;16.40;99.90
2565;DHT22;1292;48.020;7.822;2022-10-22T18:36:42;16.30;99.90
2565;DHT22;1292;48.020;7.822;2022-10-22T18:39:12;16.30;99.90
2565;DHT22;1292;48.020;7.822;2022-10-22T18:41:39;16.20;99.90
2565;DHT22;1292;48.020;7.822;2022-10-22T18:44:06;16.20;99.90
2565;DHT22;1292;48.020;7.822;2022-10-22T18:46:34;16.20;99.90
2565;DHT22;1292;48.020;7.822;2022-10-22T18:49:03;16.20;99.90
2565;DHT22;1292;48.020;7.822;2022-10-22T18:51:32;16.10;99.90
2565;DHT22;1292;48.020;7.822;2022-10-22T18:53:59;16.00;99.90
2565;DHT22;1292;48.020;7.822;2022-10-22T18:56:27;16.00;99.90
2565;DHT22;1292;48.020;7.822;2022-10-22T18:58:53;16.00;99.90
2565;DHT22;1292;48.020;7.822;2022-10-22T19:01:22;15.90;99.90
2565;DHT22;1292;48.020;7.822;2022-10-22T19:03:51;15.80;99.90
2565;DHT22;1292;48.020;7.822;2022-10-22T19:06:24;15.90;99.90
2565;DHT22;1292;48.020;7.822;2022-10-22T19:08:54;15.70;99.90
2565;DHT22;1292;48.020;7.822;2022-10-22T19:11:20;15.60;99.90
2565;DHT22;1292;48.020;7.822;2022-10-22T19:13:48;15.60;99.90
2565;DHT22;1292;48.020;7.822;2022-10-22T19:16:17;15.50;99.90
2565;DHT22;1292;48.020;7.822;2022-10-22T19:18:49;15.50;99.90
2565;DHT22;1292;48.020;7.822;2022-10-22T19:21:17;15.40;99.90
2565;DHT22;1292;48.020;7.822;2022-10-22T19:23:44;15.40;99.90
2565;DHT22;1292;48.020;7.822;2022-10-22T19:26:14;15.40;99.90
2565;DHT22;1292;48.020;7.822;2022-10-22T19:28:42;15.40;99.90
2565;DHT22;1292;48.020;7.822;2022-10-22T19:31:12;15.40;99.90
2565;DHT22;1292;48.020;7.822;2022-10-22T19:33:40;15.30;99.90
2565;DHT22;1292;48.020;7.822;2022-10-22T19:36:09;15.30;99.90
2565;DHT22;1292;48.020;7.822;2022-10-22T19:38:39;15.30;99.90
2565;DHT22;1292;48.020;7.822;2022-10-22T19:41:06;15.30;99.90
2565;DHT22;1292;48.020;7.822;2022-10-22T19:43:33;15.30;99.90
2565;DHT22;1292;48.020;7.822;2022-10-22T19:46:02;15.30;99.90
2565;DHT22;1292;48.020;7.822;2022-10-22T19:48:29;15.30;99.90
2565;DHT22;1292;48.020;7.822;2022-10-22T19:51:00;15.40;99.90
2565;DHT22;1292;48.020;7.822;2022-10-22T19:53:27;15.40;99.90
2565;DHT22;1292;48.020;7.822;2022-10-22T19:55:56;15.50;99.90
2565;DHT22;1292;48.020;7.822;2022-10-22T19:58:23;15.50;99.90
2565;DHT22;1292;48.020;7.822;2022-10-22T20:00:50;15.60;99.90
2565;DHT22;1292;48.020;7.822;2022-10-22T20:03:17;15.60;99.90
2565;DHT22;1292;48.020;7.822;2022-10-22T20:05:45;15.70;99.90
2565;DHT22;1292;48.020;7.822;2022-10-22T20:08:12;15.70;99.90
2565;DHT22;1292;48.020;7.822;2022-10-22T20:10:39;15.70;99.90
2565;DHT22;1292;48.020;7.822;2022-10-22T20:13:08;15.60;99.90
2565;DHT22;1292;48.020;7.822;2022-10-22T20:15:35;15.60;99.90
2565;DHT22;1292;48.020;7.822;2022-10-22T20:18:02;15.50;99.90
2565;DHT22;1292;48.020;7.822;2022-10-22T20:20:29;15.50;99.90
2565;DHT22;1292;48.020;7.822;2022-10-22T20:22:56;15.40;99.90
2565;DHT22;1292;48.020;7.822;2022-10-22T20:25:23;15.30;99.90
2565;DHT22;1292;48.020;7.822;2022-10-22T20:27:50;15.20;99.90
2565;DHT22;1292;48.020;7.822;2022-10-22T20:30:18;15.20;99.90
2565;DHT22;1292;48.020;7.822;2022-10-22T20:32:46;15.10;99.90
2565;DHT22;1292;48.020;7.822;2022-10-22T20:35:14;15.10;99.90
2565;DHT22;1292;48.020;7.822;2022-10-22T20:37:41;15.00;99.90
2565;DHT22;1292;48.020;7.822;2022-10-22T20:40:09;15.00;99.90
2565;DHT22;1292;48.020;7.822;2022-10-22T20:42:36;15.00;99.90
2565;DHT22;1292;48.020;7.822;2022-10-22T20:45:04;15.00;99.90
2565;DHT22;1292;48.020;7.822;2022-10-22T20:47:32;15.00;99.90
2565;DHT22;1292;48.020;7.822;2022-10-22T20:49:59;15.00;99.90
2565;DHT22;1292;48.020;7.822;2022-10-22T20:52:26;15.00;99.90
2565;DHT22;1292;48.020;7.822;2022-10-22T20:54:52;14.80;99.90
2565;DHT22;1292;48.020;7.822;2022-10-22T20:57:19;14.50;99.90
2565;DHT22;1292;48.020;7.822;2022-10-22T20:59:47;14.40;99.90
